Terminal Aerodrome Forecast
Issued by NWS Raleigh/Durham, NC

Home | Current Version | Previous Version | Text Only | Print | Product List | Glossary On
Versions: 1 2 3 4 5 6 7 8 9 10 11 12 13 14 15 16 17 18
000
FTUS42 KRAH 281134
TAFFAY
TAF
KFAY 281134Z 2812/2912 19003KT P6SM SCT040 BKN100
     FM282100 18007KT P6SM VCTS BKN050CB
     FM290300 15003KT P6SM OVC100=

USA.gov is the U.S. government's official web portal to all federal, state and local government web resources and services.